Time;durP1;ratioP1;P1;durP2;ratioP2;P2;SDS_P1;SDS_P2;PMS_P1;PMS_P2;Temp;Humidity;BMP_temperature;BMP_pressure;BME280_temperature;BME280_humidity;BME280_pressure;Samples;Min_cycle;Max_cycle;Signal;HPM_P1;HPM_P2
2022/10/12 00:00:53;;;;;;;;;;;;;;;66.45;0.00;100916.44;5050484;27;19928;-62
2022/10/12 00:03:20;;;;;;;;;;;;;;;65.86;0.00;100919.91;5061541;27;19943;-62
2022/10/12 00:05:46;;;;;;;;;;;;;;;65.63;0.00;100914.97;5083326;27;19990;-62
2022/10/12 00:08:13;;;;;;;;;;;;;;;61.08;0.83;100921.00;5054487;27;19925;-62
2022/10/12 00:10:40;;;;;;;;;;;;;;;59.99;1.40;100916.91;5046301;27;19931;-61
2022/10/12 00:13:07;;;;;;;;;;;;;;;57.82;2.96;100922.59;5048842;27;20400;-62
2022/10/12 00:15:35;;;;;;;;;;;;;;;56.24;3.08;100921.03;5102125;27;20300;-63
2022/10/12 00:18:02;;;;;;;;;;;;;;;56.26;2.95;100917.53;5079654;27;20368;-63
2022/10/12 00:20:28;;;;;;;;;;;;;;;54.24;4.35;100919.78;5095522;27;19921;-63
2022/10/12 00:22:54;;;;;;;;;;;;;;;53.76;4.93;100927.81;5072582;27;19980;-63
2022/10/12 00:25:20;;;;;;;;;;;;;;;53.80;4.24;100919.53;5108745;27;19920;-61
2022/10/12 00:27:47;;;;;;;;;;;;;;;54.41;4.03;100925.16;5104818;27;20374;-63
2022/10/12 00:30:13;;;;;;;;;;;;;;;54.09;4.08;100925.47;5132230;27;19915;-62
2022/10/12 00:32:40;;;;;;;;;;;;;;;52.66;4.96;100929.53;5066993;27;19929;-61
2022/10/12 00:35:06;;;;;;;;;;;;;;;53.09;5.51;100932.16;5118473;27;20373;-62
2022/10/12 00:37:36;;;;;;;;;;;;;;;53.08;4.95;100936.41;5101144;27;19954;-62
2022/10/12 00:40:03;;;;;;;;;;;;;;;52.12;5.38;100924.94;5052966;27;20181;-62
2022/10/12 00:42:33;;;;;;;;;;;;;;;52.66;5.85;100927.41;5062078;27;19936;-62
2022/10/12 00:44:59;;;;;;;;;;;;;;;52.92;5.75;100935.38;5050402;27;19939;-62
2022/10/12 00:47:34;;;;;;;;;;;;;;;52.68;6.11;100939.25;5054547;27;19917;-62
2022/10/12 00:50:00;;;;;;;;;;;;;;;52.47;6.47;100947.03;5055708;27;20003;-64
2022/10/12 00:52:31;;;;;;;;;;;;;;;50.20;8.25;100947.91;5053203;27;19921;-62
2022/10/12 00:54:58;;;;;;;;;;;;;;;50.54;7.45;100948.44;5140430;27;19964;-62
2022/10/12 00:57:24;;;;;;;;;;;;;;;51.22;7.40;100948.56;5115919;27;19920;-61
2022/10/12 01:00:03;;;;;;;;;;;;;;;51.14;7.49;100951.25;5032365;27;19965;-61
2022/10/12 01:02:32;;;;;;;;;;;;;;;51.96;6.87;100944.13;5044954;27;19934;-62
2022/10/12 01:04:58;;;;;;;;;;;;;;;51.15;7.37;100952.03;5048677;27;19951;-62
2022/10/12 01:07:25;;;;;;;;;;;;;;;51.52;7.44;100957.13;5047736;27;20275;-61
2022/10/12 01:09:51;;;;;;;;;;;;;;;51.06;8.04;100959.00;5050653;28;19981;-61
2022/10/12 01:12:18;;;;;;;;;;;;;;;51.10;7.73;100965.28;5054484;28;20385;-60
2022/10/12 01:14:44;;;;;;;;;;;;;;;51.14;7.77;100959.16;5047493;28;19956;-60
2022/10/12 01:17:24;;;;;;;;;;;;;;;51.52;7.68;100960.81;5048782;28;19921;-61
2022/10/12 01:19:57;;;;;;;;;;;;;;;50.77;8.34;100960.59;5047411;28;19979;-61
2022/10/12 01:22:23;;;;;;;;;;;;;;;50.97;8.40;100968.00;5046656;27;19997;-61
2022/10/12 01:24:59;;;;;;;;;;;;;;;51.47;7.88;100973.25;5071133;28;20005;-62
2022/10/12 01:27:34;;;;;;;;;;;;;;;50.17;8.84;100983.69;5094924;28;20026;-62
2022/10/12 01:30:22;;;;;;;;;;;;;;;50.36;8.13;100981.72;5044051;28;19967;-61
2022/10/12 01:32:56;;;;;;;;;;;;;;;50.75;7.89;100987.19;5050210;27;20013;-60
2022/10/12 01:35:32;;;;;;;;;;;;;;;51.14;7.88;100985.22;5039676;28;20007;-63
2022/10/12 01:38:20;;;;;;;;;;;;;;;51.24;8.27;100977.75;5051643;28;19925;-61
2022/10/12 01:41:00;;;;;;;;;;;;;;;51.35;7.48;100989.19;5050935;27;19925;-61
2022/10/12 01:43:38;;;;;;;;;;;;;;;51.21;7.77;100994.13;5049840;27;19954;-61
2022/10/12 01:46:06;;;;;;;;;;;;;;;51.32;7.59;100996.06;5042186;28;19928;-60
2022/10/12 01:48:32;;;;;;;;;;;;;;;51.29;7.97;101002.97;5049729;27;20423;-61
2022/10/12 01:51:01;;;;;;;;;;;;;;;51.25;8.04;101002.50;5110423;27;20257;-60
2022/10/12 01:53:32;;;;;;;;;;;;;;;51.25;7.75;100999.59;5047544;27;20132;-61
2022/10/12 01:56:22;;;;;;;;;;;;;;;50.90;8.54;101007.06;5053309;27;19924;-60
2022/10/12 01:59:24;;;;;;;;;;;;;;;51.15;8.22;101010.75;5042954;27;19921;-60
2022/10/12 02:01:59;;;;;;;;;;;;;;;50.91;8.22;101014.41;5032142;28;19979;-60
2022/10/12 02:04:25;;;;;;;;;;;;;;;50.72;8.40;101014.34;5041068;27;19920;-60
2022/10/12 02:06:54;;;;;;;;;;;;;;;49.99;9.03;101021.91;5060112;27;19970;-60
2022/10/12 02:09:24;;;;;;;;;;;;;;;50.01;9.26;101025.06;5051394;27;19921;-60
2022/10/12 02:11:56;;;;;;;;;;;;;;;50.01;8.82;101022.19;5049491;27;19920;-61
2022/10/12 02:14:25;;;;;;;;;;;;;;;50.20;9.20;101028.88;5051603;27;19928;-60
2022/10/12 02:17:01;;;;;;;;;;;;;;;49.26;9.39;101036.59;5050728;27;19917;-61
2022/10/12 02:19:30;;;;;;;;;;;;;;;49.25;10.01;101040.81;5082312;27;19954;-62
2022/10/12 02:21:58;;;;;;;;;;;;;;;49.64;9.13;101034.91;5084823;27;19920;-60
2022/10/12 02:24:25;;;;;;;;;;;;;;;49.26;10.02;101037.38;5077160;27;19974;-60
2022/10/12 02:26:53;;;;;;;;;;;;;;;49.56;9.48;101045.47;5065917;27;19966;-59
2022/10/12 02:29:22;;;;;;;;;;;;;;;49.43;9.57;101045.25;5071704;27;20461;-61
2022/10/12 02:32:08;;;;;;;;;;;;;;;49.66;9.35;101051.75;5101569;27;19923;-60
2022/10/12 02:34:37;;;;;;;;;;;;;;;48.86;10.52;101049.50;5075846;27;19972;-60
2022/10/12 02:37:11;;;;;;;;;;;;;;;48.25;10.44;101061.72;5135434;27;19968;-60
2022/10/12 02:39:47;;;;;;;;;;;;;;;46.99;11.64;101057.06;5079401;27;20400;-61
2022/10/12 02:42:17;;;;;;;;;;;;;;;47.57;11.00;101063.50;5137137;27;20377;-61
2022/10/12 02:44:45;;;;;;;;;;;;;;;48.43;10.55;101069.88;5088097;27;19960;-61
2022/10/12 02:47:11;;;;;;;;;;;;;;;48.33;10.56;101066.47;5097604;27;19923;-61
2022/10/12 02:49:38;;;;;;;;;;;;;;;48.49;10.71;101067.03;5127288;27;19919;-61
2022/10/12 02:52:06;;;;;;;;;;;;;;;47.57;10.99;101071.34;5138195;27;19915;-61
2022/10/12 02:54:35;;;;;;;;;;;;;;;47.65;10.90;101072.47;5081024;27;19919;-61
2022/10/12 02:57:01;;;;;;;;;;;;;;;48.03;10.84;101071.84;5111893;27;19922;-61
2022/10/12 02:59:27;;;;;;;;;;;;;;;48.57;9.89;101080.41;5063674;27;20310;-60
2022/10/12 03:01:53;;;;;;;;;;;;;;;48.37;10.53;101078.53;5079264;27;19931;-60
2022/10/12 03:04:19;;;;;;;;;;;;;;;48.08;10.56;101073.97;5075646;27;19926;-62
2022/10/12 03:06:46;;;;;;;;;;;;;;;47.15;11.25;101090.97;5063070;27;19939;-61
2022/10/12 03:09:13;;;;;;;;;;;;;;;48.02;10.89;101093.34;5063286;27;20271;-61
2022/10/12 03:11:42;;;;;;;;;;;;;;;48.35;10.28;101091.91;5065284;27;19939;-61
2022/10/12 03:14:13;;;;;;;;;;;;;;;48.36;10.48;101082.72;5063656;27;20023;-61
2022/10/12 03:16:40;;;;;;;;;;;;;;;47.19;11.47;101087.84;5047955;28;20406;-61
2022/10/12 03:19:06;;;;;;;;;;;;;;;48.11;10.66;101078.69;5050222;28;20061;-62
2022/10/12 03:21:33;;;;;;;;;;;;;;;47.99;10.76;101093.59;5050194;28;19920;-62
2022/10/12 03:23:59;;;;;;;;;;;;;;;47.72;10.94;101087.16;5049917;28;19967;-62
2022/10/12 03:26:26;;;;;;;;;;;;;;;48.33;10.28;101100.28;5050155;28;19921;-62
2022/10/12 03:28:52;;;;;;;;;;;;;;;48.53;10.06;101102.97;5049903;28;19916;-61
2022/10/12 03:31:18;;;;;;;;;;;;;;;48.35;10.20;101103.44;5049973;28;19924;-61
2022/10/12 03:33:45;;;;;;;;;;;;;;;48.09;10.25;101101.50;5050053;28;19922;-62
2022/10/12 03:36:11;;;;;;;;;;;;;;;48.17;9.87;101098.13;5049793;27;19950;-62
2022/10/12 03:38:37;;;;;;;;;;;;;;;48.33;10.05;101100.28;5049426;28;19920;-61
2022/10/12 03:41:03;;;;;;;;;;;;;;;48.35;10.20;101097.69;5048755;28;19921;-62
2022/10/12 03:43:30;;;;;;;;;;;;;;;48.24;9.83;101103.41;5049418;28;20007;-60
2022/10/12 03:45:56;;;;;;;;;;;;;;;48.01;10.49;101097.53;5049269;28;19966;-61
2022/10/12 03:48:22;;;;;;;;;;;;;;;47.98;10.13;101103.56;5049707;28;20370;-62
2022/10/12 03:50:49;;;;;;;;;;;;;;;48.28;10.05;101109.69;5059601;27;19921;-62
2022/10/12 03:53:16;;;;;;;;;;;;;;;48.29;10.08;101111.28;5097072;27;19928;-62
2022/10/12 03:55:43;;;;;;;;;;;;;;;47.55;10.50;101127.38;5132830;27;19919;-62
2022/10/12 03:58:09;;;;;;;;;;;;;;;47.66;10.76;101120.13;5132046;27;19915;-62
2022/10/12 04:00:36;;;;;;;;;;;;;;;47.95;10.27;101116.91;5133942;27;19974;-62
2022/10/12 04:03:02;;;;;;;;;;;;;;;48.03;10.49;101112.22;5120814;27;19917;-62
2022/10/12 04:05:28;;;;;;;;;;;;;;;48.43;10.21;101116.03;5091692;27;20014;-62
2022/10/12 04:07:55;;;;;;;;;;;;;;;48.78;9.58;101117.69;5094917;27;19921;-62
2022/10/12 04:10:21;;;;;;;;;;;;;;;48.93;9.19;101115.34;5085613;27;19926;-62
2022/10/12 04:12:47;;;;;;;;;;;;;;;49.07;9.00;101117.22;5108696;27;19942;-62
2022/10/12 04:15:16;;;;;;;;;;;;;;;48.89;9.35;101123.50;5076602;27;19987;-62
2022/10/12 04:17:43;;;;;;;;;;;;;;;48.61;9.79;101129.22;5118152;27;20016;-61
2022/10/12 04:20:10;;;;;;;;;;;;;;;48.48;10.06;101123.94;5092485;27;19927;-61
2022/10/12 04:22:37;;;;;;;;;;;;;;;48.73;9.58;101130.81;5133308;27;19916;-61
2022/10/12 04:25:03;;;;;;;;;;;;;;;48.81;9.58;101134.75;5131547;27;20002;-61
2022/10/12 04:27:29;;;;;;;;;;;;;;;48.59;9.70;101132.63;5133559;27;19919;-61
2022/10/12 04:29:55;;;;;;;;;;;;;;;48.53;9.39;101131.03;5133183;27;20375;-61
2022/10/12 04:32:22;;;;;;;;;;;;;;;48.63;9.02;101135.25;5133484;27;20010;-62
2022/10/12 04:34:48;;;;;;;;;;;;;;;48.72;9.33;101127.16;5133462;27;20385;-61
2022/10/12 04:37:14;;;;;;;;;;;;;;;48.06;10.07;101140.00;5133360;27;19916;-61
2022/10/12 04:39:40;;;;;;;;;;;;;;;47.82;10.45;101139.59;5103974;27;20353;-61
2022/10/12 04:42:07;;;;;;;;;;;;;;;47.62;10.29;101151.28;5048653;28;19917;-61
2022/10/12 04:44:33;;;;;;;;;;;;;;;47.73;10.45;101146.34;5049183;28;19924;-61
2022/10/12 04:47:00;;;;;;;;;;;;;;;48.01;10.38;101146.53;5049261;28;20384;-61
2022/10/12 04:49:27;;;;;;;;;;;;;;;48.20;10.39;101154.75;5059283;28;19923;-62
2022/10/12 04:51:53;;;;;;;;;;;;;;;47.76;10.44;101156.88;5060851;28;20376;-62
2022/10/12 04:54:19;;;;;;;;;;;;;;;47.80;10.39;101160.31;5090005;28;19924;-62
2022/10/12 04:56:45;;;;;;;;;;;;;;;47.92;10.18;101169.81;5084358;28;19917;-61
2022/10/12 04:59:11;;;;;;;;;;;;;;;48.33;9.98;101172.41;5049071;28;19975;-61
2022/10/12 05:01:38;;;;;;;;;;;;;;;48.38;9.55;101165.84;5049109;28;19917;-62
2022/10/12 05:04:04;;;;;;;;;;;;;;;48.55;10.16;101166.69;5048614;28;20016;-64
2022/10/12 05:06:30;;;;;;;;;;;;;;;48.58;9.94;101179.28;5048787;28;19923;-61
2022/10/12 05:08:56;;;;;;;;;;;;;;;48.49;9.72;101174.56;5049704;28;20098;-63
2022/10/12 05:11:23;;;;;;;;;;;;;;;48.29;10.31;101177.59;5052430;28;19924;-62
2022/10/12 05:13:49;;;;;;;;;;;;;;;48.29;10.00;101180.50;5052366;28;19960;-62
2022/10/12 05:16:15;;;;;;;;;;;;;;;48.30;10.10;101180.00;5050553;28;19920;-63
2022/10/12 05:18:41;;;;;;;;;;;;;;;48.07;10.41;101176.19;5052127;28;19921;-62
2022/10/12 05:21:08;;;;;;;;;;;;;;;48.12;9.95;101183.25;5051907;27;20370;-64
2022/10/12 05:23:34;;;;;;;;;;;;;;;48.09;9.99;101187.97;5050340;28;20411;-62
2022/10/12 05:26:00;;;;;;;;;;;;;;;47.86;10.11;101192.06;5052080;28;19920;-62
2022/10/12 05:28:26;;;;;;;;;;;;;;;47.78;10.34;101193.81;5051608;28;20377;-63
2022/10/12 05:30:53;;;;;;;;;;;;;;;47.52;10.63;101188.13;5062681;27;20017;-64
2022/10/12 05:33:19;;;;;;;;;;;;;;;47.50;10.65;101180.00;5052047;28;19921;-63
2022/10/12 05:35:47;;;;;;;;;;;;;;;46.96;10.75;101197.00;5051769;28;19936;-63
2022/10/12 05:38:13;;;;;;;;;;;;;;;46.37;11.61;101194.47;5051764;27;20003;-64
2022/10/12 05:40:39;;;;;;;;;;;;;;;45.84;11.77;101202.59;5064086;27;19921;-63
2022/10/12 05:43:06;;;;;;;;;;;;;;;46.00;12.02;101199.97;5052073;28;19946;-63
2022/10/12 05:45:32;;;;;;;;;;;;;;;46.85;11.03;101199.75;5051644;28;20070;-62
2022/10/12 05:47:58;;;;;;;;;;;;;;;45.99;12.05;101206.22;5051080;28;19921;-62
2022/10/12 05:50:24;;;;;;;;;;;;;;;45.98;12.32;101196.81;5050861;27;19917;-63
2022/10/12 05:52:51;;;;;;;;;;;;;;;46.51;12.04;101198.59;5097792;27;19926;-62
2022/10/12 05:55:17;;;;;;;;;;;;;;;46.42;11.71;101200.81;5090601;27;19917;-62
2022/10/12 05:57:44;;;;;;;;;;;;;;;45.82;12.54;101205.19;5091673;27;19926;-62
2022/10/12 06:00:10;;;;;;;;;;;;;;;46.09;12.01;101201.94;5064897;27;19924;-62
2022/10/12 06:02:36;;;;;;;;;;;;;;;45.77;12.58;101212.41;5136665;27;19919;-62
2022/10/12 06:05:03;;;;;;;;;;;;;;;46.27;12.14;101201.66;5066858;27;19923;-61
2022/10/12 06:07:30;;;;;;;;;;;;;;;46.13;11.62;101207.47;5148541;27;19915;-62
2022/10/12 06:09:56;;;;;;;;;;;;;;;44.96;13.00;101209.94;5066957;27;19921;-62
2022/10/12 06:12:23;;;;;;;;;;;;;;;45.75;12.10;101207.16;5117533;27;19919;-61
2022/10/12 06:14:49;;;;;;;;;;;;;;;45.60;12.25;101203.50;5069838;27;20006;-62
2022/10/12 06:17:16;;;;;;;;;;;;;;;45.37;12.34;101210.16;5053288;27;19942;-61
2022/10/12 06:19:42;;;;;;;;;;;;;;;44.94;12.64;101203.91;5118157;27;19917;-62
2022/10/12 06:22:08;;;;;;;;;;;;;;;44.32;13.81;101213.25;5107742;27;19967;-62
2022/10/12 06:24:34;;;;;;;;;;;;;;;45.10;12.69;101212.03;5078149;27;19940;-61
2022/10/12 06:27:01;;;;;;;;;;;;;;;45.42;12.23;101212.31;5058843;27;20400;-62
2022/10/12 06:29:27;;;;;;;;;;;;;;;45.51;12.63;101209.38;5106624;27;19998;-62
2022/10/12 06:31:53;;;;;;;;;;;;;;;44.95;13.19;101216.97;5110419;27;20385;-62
2022/10/12 06:34:19;;;;;;;;;;;;;;;46.30;11.60;101220.75;5115995;27;20037;-62
2022/10/12 06:36:47;;;;;;;;;;;;;;;46.20;11.84;101213.59;5072726;27;19920;-61
2022/10/12 06:39:13;;;;;;;;;;;;;;;46.56;11.26;101217.22;5138125;27;19932;-61
2022/10/12 06:41:39;;;;;;;;;;;;;;;46.06;11.84;101220.19;5086467;27;20014;-62
2022/10/12 06:44:08;;;;;;;;;;;;;;;46.15;11.87;101216.41;5099999;27;20392;-61
2022/10/12 06:46:34;;;;;;;;;;;;;;;46.76;11.22;101217.22;5126683;27;19919;-62
2022/10/12 06:49:00;;;;;;;;;;;;;;;46.78;10.74;101217.50;5067917;27;19958;-62
2022/10/12 06:51:27;;;;;;;;;;;;;;;46.91;10.62;101220.78;5129734;27;19927;-62
2022/10/12 06:53:56;;;;;;;;;;;;;;;47.10;10.57;101221.22;5096404;27;19926;-61
2022/10/12 06:56:22;;;;;;;;;;;;;;;46.99;10.54;101218.22;5089573;27;19920;-62
2022/10/12 06:58:52;;;;;;;;;;;;;;;46.55;11.27;101221.38;5087910;27;19917;-62
2022/10/12 07:01:19;;;;;;;;;;;;;;;46.77;10.67;101226.63;5071012;27;19919;-62
2022/10/12 07:03:45;;;;;;;;;;;;;;;47.00;10.17;101222.69;5116209;27;19917;-62
2022/10/12 07:06:12;;;;;;;;;;;;;;;47.03;10.90;101226.63;5109617;27;20359;-61
2022/10/12 07:08:40;;;;;;;;;;;;;;;46.43;10.85;101226.19;5077510;27;19920;-62
2022/10/12 07:11:07;;;;;;;;;;;;;;;46.80;11.09;101226.41;5136967;27;20021;-62
2022/10/12 07:13:33;;;;;;;;;;;;;;;46.85;10.49;101214.16;5081543;27;20349;-62
2022/10/12 07:16:00;;;;;;;;;;;;;;;46.87;11.01;101223.09;5105214;27;19921;-62
2022/10/12 07:18:26;;;;;;;;;;;;;;;46.72;10.72;101224.47;5120063;27;20380;-62
2022/10/12 07:20:56;;;;;;;;;;;;;;;46.52;11.22;101225.28;5068684;27;20293;-62
2022/10/12 07:23:22;;;;;;;;;;;;;;;46.89;10.95;101223.38;5132110;27;19924;-62
2022/10/12 07:25:49;;;;;;;;;;;;;;;46.74;10.85;101227.63;5092378;27;19923;-61
2022/10/12 07:28:16;;;;;;;;;;;;;;;46.67;10.68;101223.88;5093860;27;19921;-62
2022/10/12 07:30:42;;;;;;;;;;;;;;;47.01;10.88;101232.91;5131238;27;20377;-62
2022/10/12 07:33:08;;;;;;;;;;;;;;;46.84;10.57;101232.72;5068519;27;19928;-62
2022/10/12 07:35:35;;;;;;;;;;;;;;;46.55;11.24;101230.00;5121514;27;20015;-62
2022/10/12 07:38:01;;;;;;;;;;;;;;;46.75;10.71;101229.97;5101358;27;19922;-62
2022/10/12 07:40:28;;;;;;;;;;;;;;;46.85;11.13;101234.28;5084608;27;19932;-62
2022/10/12 07:42:54;;;;;;;;;;;;;;;46.86;10.71;101235.91;5136922;27;20346;-61
2022/10/12 07:45:21;;;;;;;;;;;;;;;47.19;10.83;101241.22;5072337;27;20017;-62
2022/10/12 07:47:47;;;;;;;;;;;;;;;47.19;10.45;101246.97;5113722;27;20372;-61
2022/10/12 07:50:14;;;;;;;;;;;;;;;46.78;10.92;101239.72;5110712;27;19919;-62
2022/10/12 07:52:40;;;;;;;;;;;;;;;46.57;11.05;101241.81;5075517;27;19921;-61
2022/10/12 07:55:07;;;;;;;;;;;;;;;46.55;11.50;101245.19;5136330;27;20014;-61
2022/10/12 07:57:33;;;;;;;;;;;;;;;45.97;11.81;101252.69;5080631;27;19915;-61
2022/10/12 07:59:59;;;;;;;;;;;;;;;46.63;11.40;101251.28;5074593;27;20012;-62
2022/10/12 08:02:25;;;;;;;;;;;;;;;46.72;11.25;101247.47;5118516;27;20345;-62
2022/10/12 08:04:52;;;;;;;;;;;;;;;46.24;11.56;101254.41;5067685;27;20011;-62
2022/10/12 08:07:18;;;;;;;;;;;;;;;46.67;11.21;101257.59;5134869;27;19917;-61
2022/10/12 08:09:44;;;;;;;;;;;;;;;46.79;11.14;101247.84;5088717;27;19919;-62
2022/10/12 08:12:11;;;;;;;;;;;;;;;46.89;11.23;101257.91;5096196;27;19921;-62
2022/10/12 08:14:37;;;;;;;;;;;;;;;47.00;10.70;101250.69;5127105;27;19919;-62
2022/10/12 08:17:04;;;;;;;;;;;;;;;46.95;11.12;101250.13;5067874;27;20012;-62
2022/10/12 08:19:31;;;;;;;;;;;;;;;46.77;10.80;101249.66;5124984;27;19921;-62
2022/10/12 08:21:57;;;;;;;;;;;;;;;46.60;10.91;101255.16;5098114;27;19926;-62
2022/10/12 08:24:24;;;;;;;;;;;;;;;46.67;10.89;101257.59;5086106;27;20298;-62
2022/10/12 08:26:51;;;;;;;;;;;;;;;46.48;11.43;101256.31;5136286;27;19919;-62
2022/10/12 08:29:17;;;;;;;;;;;;;;;46.57;11.36;101254.09;5068727;27;20380;-62
2022/10/12 08:31:43;;;;;;;;;;;;;;;46.24;11.70;101254.41;5115768;27;19948;-62
2022/10/12 08:34:10;;;;;;;;;;;;;;;46.26;11.67;101262.53;5106935;27;19919;-62
2022/10/12 08:36:36;;;;;;;;;;;;;;;46.48;11.08;101267.81;5078041;27;19924;-62
2022/10/12 08:39:05;;;;;;;;;;;;;;;46.47;11.56;101267.03;5136239;27;19919;-62
2022/10/12 08:41:50;;;;;;;;;;;;;;;46.43;11.49;101269.34;5079254;27;19922;-62
2022/10/12 08:44:40;;;;;;;;;;;;;;;46.38;11.63;101265.06;5091594;27;19924;-61
2022/10/12 08:47:17;;;;;;;;;;;;;;;46.25;11.45;101273.25;5136052;27;19919;-61
2022/10/12 08:49:44;;;;;;;;;;;;;;;46.08;11.92;101275.88;5087582;27;19919;-62
2022/10/12 08:52:20;;;;;;;;;;;;;;;46.00;11.81;101273.88;5096124;27;20015;-62
2022/10/12 08:54:46;;;;;;;;;;;;;;;45.87;12.33;101279.94;5133363;27;20351;-62
2022/10/12 08:57:15;;;;;;;;;;;;;;;46.07;11.66;101273.50;5067426;27;19915;-62
2022/10/12 08:59:41;;;;;;;;;;;;;;;45.98;11.79;101282.22;5087521;27;19925;-62
2022/10/12 09:02:26;;;;;;;;;;;;;;;45.90;11.90;101272.41;5049380;28;19942;-62
2022/10/12 09:04:52;;;;;;;;;;;;;;;45.90;11.85;101278.16;5135967;27;19919;-62
2022/10/12 09:07:34;;;;;;;;;;;;;;;45.86;11.95;101280.44;5069750;27;20071;-62
2022/10/12 09:10:18;;;;;;;;;;;;;;;45.67;12.15;101274.16;5103295;27;19971;-62
2022/10/12 09:13:10;;;;;;;;;;;;;;;45.55;12.17;101280.94;5131816;27;20384;-62
2022/10/12 09:15:57;;;;;;;;;;;;;;;45.61;12.00;101284.72;5091809;27;19923;-62
2022/10/12 09:18:44;;;;;;;;;;;;;;;45.56;12.55;101274.72;5086651;27;20366;-62
2022/10/12 09:21:16;;;;;;;;;;;;;;;45.26;12.67;101284.63;5135972;27;19936;-61
2022/10/12 09:23:43;;;;;;;;;;;;;;;45.40;12.53;101281.72;5086821;27;19942;-62
2022/10/12 09:26:12;;;;;;;;;;;;;;;45.47;12.80;101274.81;5096744;27;19924;-61
2022/10/12 09:28:41;;;;;;;;;;;;;;;45.47;12.22;101278.47;5086319;27;19992;-61
2022/10/12 09:31:23;;;;;;;;;;;;;;;45.59;12.79;101275.78;5135771;27;19987;-61
2022/10/12 09:33:57;;;;;;;;;;;;;;;45.49;12.33;101272.25;5091586;27;20413;-61
2022/10/12 09:36:25;;;;;;;;;;;;;;;45.38;12.94;101274.91;5086345;27;19944;-61
2022/10/12 09:38:51;;;;;;;;;;;;;;;45.43;12.55;101262.75;5135747;27;20017;-61
2022/10/12 09:41:26;;;;;;;;;;;;;;;45.45;12.81;101268.78;5068809;27;19923;-61
2022/10/12 09:43:54;;;;;;;;;;;;;;;45.46;12.39;101271.16;5108564;27;19925;-61
2022/10/12 09:46:49;;;;;;;;;;;;;;;45.41;13.03;101268.16;5113834;27;19924;-62
2022/10/12 09:49:15;;;;;;;;;;;;;;;45.28;12.52;101265.63;5041421;27;19973;-61
2022/10/12 09:51:43;;;;;;;;;;;;;;;45.10;12.65;101271.50;5116161;27;19927;-61
2022/10/12 09:54:15;;;;;;;;;;;;;;;45.18;13.02;101261.22;5105775;27;19919;-62
2022/10/12 09:56:45;;;;;;;;;;;;;;;45.19;12.48;101275.06;5075831;27;20312;-61
2022/10/12 09:59:30;;;;;;;;;;;;;;;45.28;12.37;101268.47;5105636;27;19915;-61
2022/10/12 10:01:58;;;;;;;;;;;;;;;45.32;12.74;101259.66;5109171;27;19970;-61
2022/10/12 10:04:25;;;;;;;;;;;;;;;45.36;12.73;101254.50;5074473;27;19913;-61
2022/10/12 10:06:51;;;;;;;;;;;;;;;45.14;12.75;101258.53;5052658;27;19966;-61
2022/10/12 10:09:28;;;;;;;;;;;;;;;45.09;12.63;101253.50;5137071;27;19977;-61
2022/10/12 10:11:56;;;;;;;;;;;;;;;45.00;12.61;101253.56;5098721;27;19922;-61
2022/10/12 10:14:22;;;;;;;;;;;;;;;44.94;12.50;101252.69;5123153;27;19915;-62
2022/10/12 10:16:49;;;;;;;;;;;;;;;45.01;12.86;101255.16;5153134;27;20440;-61
2022/10/12 10:19:20;;;;;;;;;;;;;;;44.79;13.21;101246.09;5054156;27;19921;-61
2022/10/12 10:21:46;;;;;;;;;;;;;;;44.84;12.94;101249.06;5116159;27;19920;-61
2022/10/12 10:24:22;;;;;;;;;;;;;;;44.66;12.79;101246.34;5111178;27;19927;-61
2022/10/12 10:27:02;;;;;;;;;;;;;;;44.65;13.41;101246.81;5071316;27;20374;-62
2022/10/12 10:29:31;;;;;;;;;;;;;;;44.71;13.23;101245.69;5073638;27;20432;-61
2022/10/12 10:32:22;;;;;;;;;;;;;;;44.74;12.65;101241.03;5051153;28;19924;-61
2022/10/12 10:35:09;;;;;;;;;;;;;;;44.84;12.71;101248.25;5137541;27;19923;-62
2022/10/12 10:37:35;;;;;;;;;;;;;;;44.82;12.71;101247.97;5083446;27;19926;-61
2022/10/12 10:40:02;;;;;;;;;;;;;;;44.81;12.71;101243.50;5104626;27;20001;-61
2022/10/12 10:42:30;;;;;;;;;;;;;;;44.66;13.32;101248.41;5122268;27;19948;-62
2022/10/12 10:44:58;;;;;;;;;;;;;;;44.44;13.15;101251.56;5069470;27;19921;-62
2022/10/12 10:47:25;;;;;;;;;;;;;;;44.50;13.43;101252.50;5131336;27;19921;-62
2022/10/12 10:49:56;;;;;;;;;;;;;;;44.59;13.28;101236.03;5095309;27;19923;-62
2022/10/12 10:52:33;;;;;;;;;;;;;;;44.64;13.47;101237.44;5089637;27;19921;-61
2022/10/12 10:55:16;;;;;;;;;;;;;;;44.64;13.09;101240.31;5138000;27;20058;-62
2022/10/12 10:57:53;;;;;;;;;;;;;;;44.62;13.38;101239.22;5088873;27;20423;-61
2022/10/12 11:00:20;;;;;;;;;;;;;;;44.59;12.87;101233.19;5088562;27;19928;-62
2022/10/12 11:02:55;;;;;;;;;;;;;;;44.51;13.40;101249.16;5051006;28;19920;-62
2022/10/12 11:05:22;;;;;;;;;;;;;;;44.54;13.19;101247.41;5057974;27;19926;-62
2022/10/12 11:07:52;;;;;;;;;;;;;;;44.53;13.63;101251.56;5113413;27;19946;-62
2022/10/12 11:10:22;;;;;;;;;;;;;;;44.50;13.62;101249.63;5115091;27;19923;-62
2022/10/12 11:12:52;;;;;;;;;;;;;;;44.48;13.47;101244.41;5070331;27;19945;-62
2022/10/12 11:15:21;;;;;;;;;;;;;;;44.48;13.69;101250.13;5055323;27;19923;-62
2022/10/12 11:17:49;;;;;;;;;;;;;;;44.41;13.84;101261.94;5114137;27;20370;-62
2022/10/12 11:20:28;;;;;;;;;;;;;;;44.44;13.52;101255.25;5112658;27;19919;-61
2022/10/12 11:23:15;;;;;;;;;;;;;;;44.52;13.13;101262.19;5068660;27;19921;-62
2022/10/12 11:25:50;;;;;;;;;;;;;;;44.50;13.64;101267.63;5118426;27;20453;-62
2022/10/12 11:28:18;;;;;;;;;;;;;;;44.43;13.24;101265.13;5088107;27;19932;-62
2022/10/12 11:30:52;;;;;;;;;;;;;;;44.28;13.87;101279.38;5133159;27;20364;-62
2022/10/12 11:33:21;;;;;;;;;;;;;;;44.36;13.64;101270.44;5055025;27;19923;-62
2022/10/12 11:35:47;;;;;;;;;;;;;;;44.37;13.42;101278.53;5114099;27;19913;-62
2022/10/12 11:38:13;;;;;;;;;;;;;;;44.37;13.45;101278.53;5111079;27;20289;-62
2022/10/12 11:41:00;;;;;;;;;;;;;;;44.36;13.34;101282.69;5076169;27;19966;-61
2022/10/12 11:43:29;;;;;;;;;;;;;;;44.36;13.36;101297.03;5060730;27;20284;-62
2022/10/12 11:45:57;;;;;;;;;;;;;;;44.33;13.71;101289.38;5107941;27;19921;-61
2022/10/12 11:48:34;;;;;;;;;;;;;;;44.36;14.13;101302.75;5117619;27;19926;-61
2022/10/12 11:51:01;;;;;;;;;;;;;;;44.24;14.38;101309.50;5068314;27;19929;-61
2022/10/12 11:53:36;;;;;;;;;;;;;;;44.09;14.24;101305.75;5127958;27;19917;-61
2022/10/12 11:56:21;;;;;;;;;;;;;;;43.97;14.77;101313.25;5102455;27;20006;-61
2022/10/12 11:58:50;;;;;;;;;;;;;;;44.22;14.61;101314.94;5070144;27;20008;-61
2022/10/12 12:01:31;;;;;;;;;;;;;;;43.92;14.32;101323.28;5052541;27;19922;-62
2022/10/12 12:04:10;;;;;;;;;;;;;;;43.92;14.41;101333.97;5105742;27;19925;-62
2022/10/12 12:06:54;;;;;;;;;;;;;;;43.98;13.97;101326.28;5126973;27;19971;-62
2022/10/12 12:09:30;;;;;;;;;;;;;;;44.05;13.79;101333.75;5056475;27;19923;-62
2022/10/12 12:12:10;;;;;;;;;;;;;;;44.12;13.70;101336.31;5107066;27;19986;-62
2022/10/12 12:14:44;;;;;;;;;;;;;;;44.15;13.74;101338.19;5126751;27;19953;-61
2022/10/12 12:17:30;;;;;;;;;;;;;;;44.13;13.95;101338.69;5067871;27;19931;-62
2022/10/12 12:19:58;;;;;;;;;;;;;;;43.94;14.01;101340.78;5106145;27;20271;-61
2022/10/12 12:22:27;;;;;;;;;;;;;;;44.04;14.07;101344.44;5117939;27;20359;-62
2022/10/12 12:24:56;;;;;;;;;;;;;;;43.94;14.16;101342.88;5067786;27;19964;-61
2022/10/12 12:27:30;;;;;;;;;;;;;;;43.98;14.29;101349.22;5131111;27;20045;-61
2022/10/12 12:29:58;;;;;;;;;;;;;;;43.90;13.82;101354.50;5097486;27;19980;-62
2022/10/12 12:32:25;;;;;;;;;;;;;;;43.83;14.03;101354.06;5120639;27;19915;-61
2022/10/12 12:34:57;;;;;;;;;;;;;;;43.69;13.96;101356.31;5067707;27;19917;-61
2022/10/12 12:37:25;;;;;;;;;;;;;;;43.53;14.18;101355.81;5130473;27;19921;-61
2022/10/12 12:39:53;;;;;;;;;;;;;;;43.38;14.29;101362.19;5094223;27;20010;-61
2022/10/12 12:42:24;;;;;;;;;;;;;;;43.40;14.44;101368.22;5089611;27;19920;-61
2022/10/12 12:44:50;;;;;;;;;;;;;;;43.45;14.53;101368.84;5085332;27;20011;-61
2022/10/12 12:47:20;;;;;;;;;;;;;;;43.39;14.45;101366.66;5088284;27;20335;-62
2022/10/12 12:49:47;;;;;;;;;;;;;;;43.50;14.40;101371.09;5091347;27;19919;-62